createdAt,value
2018-08-28T00:01:11.306Z,99398.55
2018-08-28T00:03:41.866Z,99402.98
2018-08-28T00:06:12.541Z,99400.88
2018-08-28T00:08:43.161Z,99403.97
2018-08-28T00:11:14.010Z,99400.33
2018-08-28T00:13:44.568Z,99403.41
2018-08-28T00:16:15.244Z,99407.84
2018-08-28T00:18:45.717Z,99406.81
2018-08-28T00:21:16.636Z,99405.92
2018-08-28T00:23:47.308Z,99405.80
2018-08-28T00:26:18.512Z,99404.34
2018-08-28T00:28:49.078Z,99399.03
2018-08-28T00:31:19.997Z,99403.89
2018-08-28T00:33:50.441Z,99405.09
2018-08-28T00:36:21.263Z,99402.92
2018-08-28T00:38:51.956Z,99406.81
2018-08-28T00:41:22.556Z,99409.97
2018-08-28T00:43:52.996Z,99413.91
2018-08-28T00:46:23.960Z,99414.34
2018-08-28T00:48:54.595Z,99416.38
2018-08-28T00:51:25.455Z,99415.72
2018-08-28T00:53:56.049Z,99414.57
2018-08-28T00:56:26.788Z,99415.23
2018-08-28T00:58:57.499Z,99412.25
2018-08-28T01:01:28.076Z,99411.73
2018-08-28T01:03:58.502Z,99410.50
2018-08-28T01:06:29.264Z,99422.86
2018-08-28T01:08:59.865Z,99416.77
2018-08-28T01:11:30.607Z,99419.25
2018-08-28T01:14:01.190Z,99413.91
2018-08-28T01:16:31.896Z,99415.88
2018-08-28T01:19:02.672Z,99414.89
2018-08-28T01:21:33.441Z,99418.40
2018-08-28T01:24:04.041Z,99419.62
2018-08-28T01:26:35.371Z,99420.24
2018-08-28T01:29:05.973Z,99421.57
2018-08-28T01:31:36.937Z,99422.31
2018-08-28T01:34:07.572Z,99419.65
2018-08-28T01:36:38.232Z,99420.20
2018-08-28T01:39:09.770Z,99413.29
2018-08-28T01:41:40.580Z,99413.03
2018-08-28T01:44:11.267Z,99408.11
2018-08-28T01:46:42.153Z,99410.03
2018-08-28T01:49:12.753Z,99409.19
2018-08-28T01:51:43.648Z,99407.56
2018-08-28T01:54:14.272Z,99396.27
2018-08-28T01:56:44.903Z,99400.45
2018-08-28T01:59:15.636Z,99401.23
2018-08-28T02:01:46.522Z,99399.19
2018-08-28T02:04:17.151Z,99398.15
2018-08-28T02:06:48.076Z,99394.73
2018-08-28T02:09:18.725Z,99394.22
2018-08-28T02:11:49.313Z,99392.24
2018-08-28T02:14:19.913Z,99395.39
2018-08-28T02:16:50.780Z,99397.80
2018-08-28T02:19:21.457Z,99394.20
2018-08-28T02:21:52.322Z,99396.94
2018-08-28T02:24:22.752Z,99399.57
2018-08-28T02:26:53.818Z,99403.62
2018-08-28T02:29:24.361Z,99402.56
2018-08-28T02:31:55.049Z,99402.70
2018-08-28T02:34:25.632Z,99402.88
2018-08-28T02:36:56.445Z,99399.63
2018-08-28T02:39:26.837Z,99401.13
2018-08-28T02:41:57.685Z,99409.34
2018-08-28T02:44:28.337Z,99404.53
2018-08-28T02:46:59.157Z,99412.23
2018-08-28T02:49:29.970Z,99412.50
2018-08-28T02:52:00.633Z,99410.33
2018-08-28T02:54:31.017Z,99414.59
2018-08-28T02:57:01.833Z,99411.77
2018-08-28T02:59:32.374Z,99416.22
2018-08-28T03:02:03.087Z,99416.67
2018-08-28T03:04:33.796Z,99428.42
2018-08-28T03:07:04.664Z,99431.31
2018-08-28T03:09:35.224Z,99434.22
2018-08-28T03:12:06.226Z,99431.06
2018-08-28T03:14:36.990Z,99437.30
2018-08-28T03:17:07.863Z,99445.09
2018-08-28T03:19:38.444Z,99442.84
2018-08-28T03:22:09.129Z,99444.34
2018-08-28T03:24:39.704Z,99442.47
2018-08-28T03:27:10.501Z,99447.42
2018-08-28T03:29:41.140Z,99453.25
2018-08-28T03:32:11.939Z,99455.17
2018-08-28T03:34:42.605Z,99460.70
2018-08-28T03:37:13.217Z,99446.84
2018-08-28T03:39:43.859Z,99452.50
2018-08-28T03:42:14.611Z,99455.92
2018-08-28T03:44:45.311Z,99449.83
2018-08-28T03:47:16.009Z,99462.20
2018-08-28T03:49:46.693Z,99459.17
2018-08-28T03:52:17.430Z,99457.03
2018-08-28T03:54:48.245Z,99450.83
2018-08-28T03:57:18.929Z,99450.88
2018-08-28T03:59:49.572Z,99449.20
2018-08-28T04:02:20.633Z,99457.66
2018-08-28T04:04:51.122Z,99464.86
2018-08-28T04:07:22.072Z,99466.95
2018-08-28T04:09:52.825Z,99455.09
2018-08-28T04:12:23.529Z,99459.53
2018-08-28T04:14:54.099Z,99459.87
2018-08-28T04:17:24.879Z,99468.12
2018-08-28T04:19:55.604Z,99466.92
2018-08-28T04:22:26.392Z,99468.87
2018-08-28T04:24:57.056Z,99475.33
2018-08-28T04:27:27.757Z,99480.43
2018-08-28T04:29:58.377Z,99479.08
2018-08-28T04:32:29.429Z,99484.92
2018-08-28T04:35:00.101Z,99481.05
2018-08-28T04:37:30.801Z,99480.59
2018-08-28T04:40:01.705Z,99481.19
2018-08-28T04:42:32.788Z,99475.98
2018-08-28T04:45:03.381Z,99485.80
2018-08-28T04:47:34.320Z,99492.23
2018-08-28T04:50:04.889Z,99490.99
2018-08-28T04:52:35.794Z,99491.52
2018-08-28T04:55:06.560Z,99495.80
2018-08-28T04:57:37.424Z,99487.34
2018-08-28T05:00:09.222Z,99488.51
2018-08-28T05:02:39.897Z,99496.73
2018-08-28T05:05:10.864Z,99494.84
2018-08-28T05:07:41.501Z,99502.64
2018-08-28T05:10:12.218Z,99502.14
2018-08-28T05:12:42.959Z,99502.17
2018-08-28T05:15:13.525Z,99509.44
2018-08-28T05:17:44.338Z,99516.42
2018-08-28T05:20:15.050Z,99510.66
2018-08-28T05:22:45.902Z,99520.11
2018-08-28T05:25:16.625Z,99514.26
2018-08-28T05:27:47.492Z,99521.34
2018-08-28T05:30:18.185Z,99519.19
2018-08-28T05:32:48.873Z,99527.28
2018-08-28T05:35:19.489Z,99532.22
2018-08-28T05:37:50.354Z,99533.26
2018-08-28T05:40:21.025Z,99533.28
2018-08-28T05:42:51.529Z,99537.10
2018-08-28T05:45:22.173Z,99540.52
2018-08-28T05:47:53.041Z,99539.14
2018-08-28T05:50:23.854Z,99532.35
2018-08-28T05:52:54.959Z,99537.64
2018-08-28T05:55:25.626Z,99529.72
2018-08-28T05:57:56.593Z,99533.25
2018-08-28T06:00:27.370Z,99538.91
2018-08-28T06:02:58.209Z,99536.50
2018-08-28T06:05:28.838Z,99542.48
2018-08-28T06:07:59.651Z,99544.64
2018-08-28T06:10:30.169Z,99545.89
2018-08-28T06:13:01.111Z,99545.55
2018-08-28T06:15:31.737Z,99541.95
2018-08-28T06:18:02.565Z,99541.09
2018-08-28T06:20:33.285Z,99550.59
2018-08-28T06:23:03.929Z,99542.73
2018-08-28T06:25:34.374Z,99545.06
2018-08-28T06:28:05.309Z,99540.16
2018-08-28T06:30:35.987Z,99538.46
2018-08-28T06:33:06.865Z,99544.40
2018-08-28T06:35:37.621Z,99547.18
2018-08-28T06:38:08.341Z,99545.58
2018-08-28T06:40:38.927Z,99551.17
2018-08-28T06:43:10.678Z,99560.36
2018-08-28T06:45:41.188Z,99564.84
2018-08-28T06:48:12.010Z,99564.34
2018-08-28T06:50:42.602Z,99575.59
2018-08-28T06:53:13.302Z,99578.22
2018-08-28T06:55:43.892Z,99576.91
2018-08-28T06:58:14.919Z,99567.89
2018-08-28T07:00:45.484Z,99574.68
2018-08-28T07:03:16.344Z,99577.46
2018-08-28T07:05:46.864Z,99584.63
2018-08-28T07:08:17.689Z,99577.92
2018-08-28T07:10:48.429Z,99584.70
2018-08-28T07:13:19.236Z,99577.95
2018-08-28T07:15:49.918Z,99580.55
2018-08-28T07:18:20.623Z,99577.16
2018-08-28T07:20:51.099Z,99580.56
2018-08-28T07:23:21.901Z,99580.91
2018-08-28T07:25:52.551Z,99584.09
2018-08-28T07:28:23.542Z,99584.14
2018-08-28T07:30:54.290Z,99585.02
2018-08-28T07:33:25.122Z,99572.94
2018-08-28T07:35:55.525Z,99583.73
2018-08-28T07:38:26.310Z,99582.99
2018-08-28T07:40:57.002Z,99585.43
2018-08-28T07:43:28.071Z,99582.99
2018-08-28T07:45:58.714Z,99590.05
2018-08-28T07:48:30.491Z,99583.91
2018-08-28T07:51:01.317Z,99586.92
2018-08-28T07:53:32.193Z,99588.13
2018-08-28T07:56:02.882Z,99588.16
2018-08-28T07:58:33.642Z,99581.27
2018-08-28T08:01:04.266Z,99592.09
2018-08-28T08:03:35.121Z,99583.91
2018-08-28T08:06:05.861Z,99588.55
2018-08-28T08:08:36.657Z,99580.33
2018-08-28T08:11:07.389Z,99577.72
2018-08-28T08:13:38.443Z,99583.91
2018-08-28T08:16:09.021Z,99582.22
2018-08-28T08:18:39.833Z,99577.83
2018-08-28T08:21:10.585Z,99568.98
2018-08-28T08:23:41.627Z,99571.38
2018-08-28T08:26:12.357Z,99567.06
2018-08-28T08:28:43.317Z,99562.75
2018-08-28T08:31:13.759Z,99564.13
2018-08-28T08:33:44.520Z,99558.64
2018-08-28T08:36:15.069Z,99565.29
2018-08-28T08:38:45.759Z,99561.27
2018-08-28T08:41:16.469Z,99559.77
2018-08-28T08:43:47.373Z,99560.03
2018-08-28T08:46:17.908Z,99560.19
2018-08-28T08:48:48.784Z,99555.77
2018-08-28T08:51:19.530Z,99556.70
2018-08-28T08:53:50.689Z,99553.63
2018-08-28T08:56:21.297Z,99553.45
2018-08-28T08:58:52.194Z,99551.48
2018-08-28T09:01:22.940Z,99555.39
2018-08-28T09:03:53.679Z,99554.91
2018-08-28T09:06:24.284Z,99554.00
2018-08-28T09:08:55.097Z,99544.73
2018-08-28T09:11:25.846Z,99547.14
2018-08-28T09:13:56.697Z,99545.80
2018-08-28T09:16:27.325Z,99549.85
2018-08-28T09:18:58.161Z,99542.81
2018-08-28T09:21:30.748Z,99545.62
2018-08-28T09:24:01.738Z,99547.78
2018-08-28T09:26:32.301Z,99542.23
2018-08-28T09:29:03.281Z,99546.12
2018-08-28T09:31:33.940Z,99542.58
2018-08-28T09:34:04.593Z,99538.72
2018-08-28T09:36:35.253Z,99540.00
2018-08-28T09:39:07.305Z,99543.45
2018-08-28T09:41:38.112Z,99545.32
2018-08-28T09:44:08.907Z,99537.06
2018-08-28T09:46:39.572Z,99543.16
2018-08-28T09:49:10.399Z,99539.39
2018-08-28T09:51:41.182Z,99541.25
2018-08-28T09:54:11.943Z,99534.08
2018-08-28T09:56:42.529Z,99538.51
2018-08-28T09:59:13.356Z,99546.22
2018-08-28T10:01:45.586Z,99537.44
2018-08-28T10:04:17.254Z,99537.02
2018-08-28T10:06:47.928Z,99538.59
2018-08-28T10:09:19.677Z,99536.41
2018-08-28T10:11:50.242Z,99539.47
2018-08-28T10:14:20.974Z,99537.63
2018-08-28T10:16:51.509Z,99538.25
2018-08-28T10:19:22.202Z,99534.61
2018-08-28T10:21:52.901Z,99534.17
2018-08-28T10:24:23.937Z,99531.25
2018-08-28T10:26:54.582Z,99530.14
2018-08-28T10:29:25.517Z,99530.55
2018-08-28T10:31:56.109Z,99528.80
2018-08-28T10:34:26.889Z,99522.68
2018-08-28T10:36:57.468Z,99520.15
2018-08-28T10:39:28.251Z,99523.51
2018-08-28T10:41:58.900Z,99524.22
2018-08-28T10:44:29.821Z,99524.17
2018-08-28T10:47:00.548Z,99525.14
2018-08-28T10:49:31.288Z,99516.78
2018-08-28T10:52:02.045Z,99522.41
2018-08-28T10:54:32.722Z,99514.53
2018-08-28T10:57:03.312Z,99516.86
2018-08-28T10:59:34.289Z,99513.39
2018-08-28T11:02:04.694Z,99515.49
2018-08-28T11:04:36.002Z,99508.84
2018-08-28T11:07:06.592Z,99506.42
2018-08-28T11:09:37.461Z,99502.59
2018-08-28T11:12:08.133Z,99494.66
2018-08-28T11:14:41.264Z,99496.21
2018-08-28T11:17:12.115Z,99494.64
2018-08-28T11:19:43.069Z,99490.58
2018-08-28T11:22:13.777Z,99496.25
2018-08-28T11:24:44.625Z,99488.53
2018-08-28T11:27:15.113Z,99491.56
2018-08-28T11:29:46.096Z,99482.28
2018-08-28T11:32:16.765Z,99478.36
2018-08-28T11:34:47.493Z,99475.98
2018-08-28T11:37:18.131Z,99470.88
2018-08-28T11:39:49.134Z,99471.72
2018-08-28T11:42:19.782Z,99474.34
2018-08-28T11:44:50.633Z,99468.71
2018-08-28T11:47:21.378Z,99465.51
2018-08-28T11:49:52.267Z,99458.25
2018-08-28T11:52:22.997Z,99459.67
2018-08-28T11:54:53.825Z,99453.80
2018-08-28T11:57:24.316Z,99457.38
2018-08-28T11:59:54.996Z,99452.52
2018-08-28T12:02:25.600Z,99459.25
2018-08-28T12:04:56.410Z,99458.46
2018-08-28T12:07:27.172Z,99455.28
2018-08-28T12:09:58.085Z,99456.73
2018-08-28T12:12:28.688Z,99456.55
2018-08-28T12:14:59.552Z,99456.80
2018-08-28T12:17:30.084Z,99458.72
2018-08-28T12:20:00.837Z,99459.73
2018-08-28T12:22:31.525Z,99454.02
2018-08-28T12:25:02.312Z,99448.76
2018-08-28T12:27:32.908Z,99445.05
2018-08-28T12:30:03.911Z,99443.22
2018-08-28T12:32:34.565Z,99445.91
2018-08-28T12:35:05.636Z,99443.59
2018-08-28T12:37:36.070Z,99442.87
2018-08-28T12:40:07.082Z,99452.56
2018-08-28T12:42:37.702Z,99451.05
2018-08-28T12:45:08.997Z,99452.80
2018-08-28T12:47:40.057Z,99445.73
2018-08-28T12:50:11.734Z,99455.09
2018-08-28T12:52:42.385Z,99457.09
2018-08-28T12:55:13.205Z,99461.95
2018-08-28T12:57:43.973Z,99462.81
2018-08-28T13:00:15.065Z,99463.48
2018-08-28T13:02:45.621Z,99461.99
2018-08-28T13:05:16.517Z,99451.80
2018-08-28T13:07:47.143Z,99444.14
2018-08-28T13:10:18.003Z,99443.89
2018-08-28T13:12:48.664Z,99442.21
2018-08-28T13:15:19.480Z,99440.72
2018-08-28T13:17:50.177Z,99441.66
2018-08-28T13:20:21.149Z,99444.39
2018-08-28T13:22:51.768Z,99439.89
2018-08-28T13:25:22.835Z,99442.27
2018-08-28T13:27:53.396Z,99437.58
2018-08-28T13:30:24.309Z,99434.12
2018-08-28T13:32:54.657Z,99435.80
2018-08-28T13:35:25.321Z,99431.78
2018-08-28T13:37:55.933Z,99434.36
2018-08-28T13:40:26.713Z,99431.45
2018-08-28T13:42:57.309Z,99432.11
2018-08-28T13:45:28.315Z,99429.20
2018-08-28T13:47:58.995Z,99429.80
2018-08-28T13:50:29.997Z,99432.95
2018-08-28T13:53:00.584Z,99437.36
2018-08-28T13:55:31.481Z,99432.31
2018-08-28T13:58:02.129Z,99436.48
2018-08-28T14:00:32.991Z,99434.76
2018-08-28T14:03:03.693Z,99432.99
2018-08-28T14:05:34.565Z,99432.17
2018-08-28T14:08:05.209Z,99436.41
2018-08-28T14:10:36.016Z,99436.56
2018-08-28T14:13:06.676Z,99436.08
2018-08-28T14:15:37.306Z,99439.30
2018-08-28T14:18:08.149Z,99438.06
2018-08-28T14:20:38.922Z,99434.52
2018-08-28T14:23:09.468Z,99437.50
2018-08-28T14:25:40.425Z,99437.11
2018-08-28T14:28:11.139Z,99432.17
2018-08-28T14:30:42.242Z,99434.73
2018-08-28T14:33:13.334Z,99430.78
2018-08-28T14:35:44.555Z,99432.09
2018-08-28T14:38:15.137Z,99426.82
2018-08-28T14:40:46.111Z,99424.88
2018-08-28T14:43:16.565Z,99429.52
2018-08-28T14:45:47.412Z,99428.19
2018-08-28T14:48:18.126Z,99421.33
2018-08-28T14:50:48.862Z,99427.18
2018-08-28T14:53:19.590Z,99430.58
2018-08-28T14:55:50.325Z,99430.75
2018-08-28T14:58:20.898Z,99425.20
2018-08-28T15:00:51.897Z,99429.88
2018-08-28T15:03:22.524Z,99418.55
2018-08-28T15:05:53.421Z,99424.45
2018-08-28T15:08:24.133Z,99424.80
2018-08-28T15:10:54.749Z,99424.12
2018-08-28T15:13:25.409Z,99423.71
2018-08-28T15:15:56.316Z,99433.33
2018-08-28T15:18:27.133Z,99426.60
2018-08-28T15:20:58.074Z,99426.22
2018-08-28T15:23:28.698Z,99429.41
2018-08-28T15:25:59.853Z,99431.41
2018-08-28T15:28:30.585Z,99436.98
2018-08-28T15:31:01.602Z,99441.11
2018-08-28T15:33:32.324Z,99435.22
2018-08-28T15:36:03.123Z,99436.39
2018-08-28T15:38:33.712Z,99439.34
2018-08-28T15:41:04.444Z,99441.75
2018-08-28T15:43:35.037Z,99447.07
2018-08-28T15:46:06.005Z,99442.55
2018-08-28T15:48:36.649Z,99442.90
2018-08-28T15:51:07.603Z,99446.60
2018-08-28T15:53:38.173Z,99445.41
2018-08-28T15:56:09.877Z,99447.48
2018-08-28T15:58:40.648Z,99454.83
2018-08-28T16:01:11.561Z,99450.72
2018-08-28T16:03:42.209Z,99457.97
2018-08-28T16:06:13.054Z,99461.73
2018-08-28T16:08:43.697Z,99454.77
2018-08-28T16:11:14.730Z,99459.84
2018-08-28T16:13:45.479Z,99456.04
2018-08-28T16:16:16.238Z,99458.55
2018-08-28T16:18:46.832Z,99464.95
2018-08-28T16:21:17.649Z,99461.25
2018-08-28T16:23:49.652Z,99469.95
2018-08-28T16:26:20.117Z,99476.62
2018-08-28T16:28:50.837Z,99474.83
2018-08-28T16:31:21.596Z,99481.43
2018-08-28T16:33:52.077Z,99478.61
2018-08-28T16:36:22.993Z,99481.66
2018-08-28T16:38:53.683Z,99484.92
2018-08-28T16:41:24.473Z,99491.91
2018-08-28T16:43:55.137Z,99495.59
2018-08-28T16:46:25.914Z,99496.28
2018-08-28T16:48:56.348Z,99500.63
2018-08-28T16:51:27.193Z,99501.95
2018-08-28T16:53:57.824Z,99505.53
2018-08-28T16:56:29.064Z,99506.97
2018-08-28T16:59:00.699Z,99517.05
2018-08-28T17:01:33.045Z,99504.17
2018-08-28T17:04:05.437Z,99519.00
2018-08-28T17:06:36.998Z,99520.69
2018-08-28T17:09:08.652Z,99523.89
2018-08-28T17:11:39.426Z,99533.45
2018-08-28T17:14:10.244Z,99536.26
2018-08-28T17:16:41.425Z,99531.17
2018-08-28T17:19:12.029Z,99543.19
2018-08-28T17:21:43.007Z,99546.52
2018-08-28T17:24:13.726Z,99553.29
2018-08-28T17:26:44.553Z,99553.67
2018-08-28T17:29:15.297Z,99565.27
2018-08-28T17:31:46.578Z,99564.72
2018-08-28T17:34:17.187Z,99569.29
2018-08-28T17:36:47.848Z,99569.63
2018-08-28T17:39:18.320Z,99571.98
2018-08-28T17:41:49.144Z,99575.09
2018-08-28T17:44:19.592Z,99574.27
2018-08-28T17:46:50.394Z,99578.71
2018-08-28T17:49:21.338Z,99575.44
2018-08-28T17:51:52.580Z,99581.13
2018-08-28T17:54:23.105Z,99580.00
2018-08-28T17:56:53.941Z,99583.78
2018-08-28T17:59:24.679Z,99587.13
2018-08-28T18:01:55.459Z,99587.34
2018-08-28T18:04:26.072Z,99590.22
2018-08-28T18:06:56.980Z,99593.55
2018-08-28T18:09:27.757Z,99592.56
2018-08-28T18:11:58.807Z,99601.13
2018-08-28T18:14:29.906Z,99603.16
2018-08-28T18:17:00.790Z,99602.60
2018-08-28T18:19:31.396Z,99611.89
2018-08-28T18:22:02.128Z,99613.60
2018-08-28T18:24:32.721Z,99609.72
2018-08-28T18:27:03.584Z,99617.89
2018-08-28T18:29:34.196Z,99618.25
2018-08-28T18:32:04.945Z,99619.09
2018-08-28T18:34:35.853Z,99622.71
2018-08-28T18:37:06.993Z,99624.73
2018-08-28T18:39:37.696Z,99622.86
2018-08-28T18:42:08.588Z,99626.00
2018-08-28T18:44:39.321Z,99622.77
2018-08-28T18:47:10.954Z,99622.52
2018-08-28T18:49:41.641Z,99635.46
2018-08-28T18:52:12.426Z,99636.16
2018-08-28T18:54:43.006Z,99640.77
2018-08-28T18:57:13.897Z,99636.14
2018-08-28T18:59:44.549Z,99644.09
2018-08-28T19:02:15.418Z,99641.61
2018-08-28T19:04:46.050Z,99643.59
2018-08-28T19:07:16.841Z,99643.73
2018-08-28T19:09:47.507Z,99646.25
2018-08-28T19:12:18.165Z,99642.95
2018-08-28T19:14:48.749Z,99651.14
2018-08-28T19:17:19.451Z,99655.93
2018-08-28T19:19:50.076Z,99657.45
2018-08-28T19:22:20.809Z,99659.16
2018-08-28T19:24:51.426Z,99662.66
2018-08-28T19:27:22.440Z,99660.84
2018-08-28T19:29:53.165Z,99661.98
2018-08-28T19:32:24.281Z,99661.81
2018-08-28T19:34:54.844Z,99661.11
2018-08-28T19:37:25.714Z,99661.39
2018-08-28T19:39:56.370Z,99667.48
2018-08-28T19:42:27.286Z,99647.53
2018-08-28T19:44:57.894Z,99642.31
2018-08-28T19:47:28.728Z,99644.33
2018-08-28T19:49:59.433Z,99652.95
2018-08-28T19:52:30.377Z,99658.74
2018-08-28T19:55:00.996Z,99664.30
2018-08-28T19:57:31.885Z,99669.50
2018-08-28T20:00:02.593Z,99666.06
2018-08-28T20:02:33.512Z,99668.89
2018-08-28T20:05:04.237Z,99664.38
2018-08-28T20:07:34.882Z,99673.05
2018-08-28T20:10:05.375Z,99672.55
2018-08-28T20:12:36.152Z,99685.02
2018-08-28T20:15:06.941Z,99681.16
2018-08-28T20:17:37.705Z,99694.30
2018-08-28T20:20:08.312Z,99695.95
2018-08-28T20:22:39.363Z,99698.45
2018-08-28T20:25:09.968Z,99688.99
2018-08-28T20:27:40.713Z,99693.66
2018-08-28T20:30:11.506Z,99697.14
2018-08-28T20:32:42.302Z,99703.97
2018-08-28T20:35:12.880Z,99707.63
2018-08-28T20:37:43.864Z,99709.73
2018-08-28T20:40:14.446Z,99715.83
2018-08-28T20:42:45.097Z,99713.41
2018-08-28T20:45:15.767Z,99711.39
2018-08-28T20:47:46.525Z,99716.63
2018-08-28T20:50:17.075Z,99720.98
2018-08-28T20:52:48.092Z,99723.77
2018-08-28T20:55:18.533Z,99722.48
2018-08-28T20:57:49.438Z,99727.47
2018-08-28T21:00:20.301Z,99725.67
2018-08-28T21:02:51.282Z,99730.86
2018-08-28T21:05:26.781Z,99729.23
2018-08-28T21:08:00.854Z,99726.99
2018-08-28T21:10:31.893Z,99724.55
2018-08-28T21:13:02.878Z,99723.00
2018-08-28T21:15:33.480Z,99725.27
2018-08-28T21:18:03.973Z,99723.64
2018-08-28T21:20:34.642Z,99716.70
2018-08-28T21:23:05.893Z,99711.16
2018-08-28T21:25:36.420Z,99703.81
2018-08-28T21:28:07.144Z,99704.84
2018-08-28T21:30:37.805Z,99705.33
2018-08-28T21:33:09.025Z,99704.59
2018-08-28T21:35:39.726Z,99698.90
2018-08-28T21:38:10.544Z,99703.91
2018-08-28T21:40:41.108Z,99698.98
2018-08-28T21:43:12.090Z,99696.63
2018-08-28T21:45:42.642Z,99690.80
2018-08-28T21:48:13.602Z,99688.97
2018-08-28T21:50:44.097Z,99686.14
2018-08-28T21:53:14.973Z,99688.54
2018-08-28T21:55:45.624Z,99690.16
2018-08-28T21:58:16.560Z,99682.45
2018-08-28T22:00:51.137Z,99684.47
2018-08-28T22:03:21.872Z,99687.93
2018-08-28T22:05:52.421Z,99689.90
2018-08-28T22:08:23.120Z,99686.48
2018-08-28T22:10:53.681Z,99686.42
2018-08-28T22:13:24.610Z,99687.75
2018-08-28T22:15:55.217Z,99689.05
2018-08-28T22:18:25.932Z,99689.11
2018-08-28T22:20:57.152Z,99684.53
2018-08-28T22:23:27.993Z,99695.47
2018-08-28T22:25:58.429Z,99696.52
2018-08-28T22:28:29.168Z,99697.45
2018-08-28T22:30:59.890Z,99695.96
2018-08-28T22:33:30.545Z,99697.17
2018-08-28T22:36:01.181Z,99691.55
2018-08-28T22:38:31.810Z,99688.91
2018-08-28T22:41:02.408Z,99686.98
2018-08-28T22:43:33.449Z,99696.52
2018-08-28T22:46:04.185Z,99694.78
2018-08-28T22:48:35.021Z,99690.71
2018-08-28T22:51:05.747Z,99695.94
2018-08-28T22:53:36.380Z,99688.02
2018-08-28T22:56:07.115Z,99690.41
2018-08-28T22:58:38.321Z,99690.14
2018-08-28T23:01:08.896Z,99691.67
2018-08-28T23:03:39.997Z,99685.91
2018-08-28T23:06:10.773Z,99688.04
2018-08-28T23:08:41.473Z,99682.26
2018-08-28T23:11:12.024Z,99685.53
2018-08-28T23:13:42.564Z,99683.38
2018-08-28T23:16:13.341Z,99682.02
2018-08-28T23:18:44.205Z,99681.65
2018-08-28T23:21:14.732Z,99687.02
2018-08-28T23:23:45.429Z,99687.73
2018-08-28T23:26:16.073Z,99680.52
2018-08-28T23:28:46.774Z,99685.35
2018-08-28T23:31:17.474Z,99685.83
2018-08-28T23:33:48.064Z,99684.80
2018-08-28T23:36:18.709Z,99686.95
2018-08-28T23:38:49.622Z,99691.13
2018-08-28T23:41:20.372Z,99694.81
2018-08-28T23:43:51.212Z,99693.98
2018-08-28T23:46:21.888Z,99696.80
2018-08-28T23:48:52.981Z,99697.98
2018-08-28T23:51:23.356Z,99693.30
2018-08-28T23:53:54.048Z,99698.42
2018-08-28T23:56:24.669Z,99701.25
2018-08-28T23:58:55.317Z,99698.60
